Time;durP1;ratioP1;P1;durP2;ratioP2;P2;SDS_P1;SDS_P2;PMS_P1;PMS_P2;Temp;Humidity;BMP_temperature;BMP_pressure;BME280_temperature;BME280_humidity;BME280_pressure;Samples;Min_cycle;Max_cycle;Signal;HPM_P1;HPM_P2
2023/07/21 00:01:08;;;;;;;19.60;10.00;;;;;;;21.66;79.70;98520.64;79675;1292;3012035;-63
2023/07/21 00:03:41;;;;;;;17.10;8.20;;;;;;;21.74;79.24;98513.00;78409;1297;3049479;-62
2023/07/21 00:06:09;;;;;;;13.10;8.20;;;;;;;21.52;80.21;98500.22;79540;1298;3013651;-62
2023/07/21 00:08:39;;;;;;;16.90;8.60;;;;;;;21.31;81.21;98494.89;78375;1298;3052526;-64
2023/07/21 00:11:05;;;;;;;12.60;6.60;;;;;;;21.02;82.77;98494.42;79552;1298;3013222;-64
2023/07/21 00:13:35;;;;;;;12.60;7.20;;;;;;;21.27;82.39;98490.06;79571;1298;3012217;-61
2023/07/21 00:16:04;;;;;;;10.00;6.70;;;;;;;21.52;80.88;98486.36;78371;1298;3049016;-63
2023/07/21 00:18:32;;;;;;;16.90;7.20;;;;;;;21.45;81.28;98489.27;79614;1297;3013650;-63
2023/07/21 00:20:59;;;;;;;11.40;7.60;;;;;;;21.16;82.52;98498.61;79677;1292;3013251;-67
2023/07/21 00:23:27;;;;;;;10.60;7.60;;;;;;;21.12;83.09;98493.83;78557;1297;3054169;-63
2023/07/21 00:25:54;;;;;;;11.10;5.80;;;;;;;20.84;84.67;98502.35;79666;1297;3013692;-64
2023/07/21 00:28:21;;;;;;;8.80;5.80;;;;;;;21.24;83.41;98502.11;79556;1292;3012886;-64
2023/07/21 00:30:50;;;;;;;11.10;6.70;;;;;;;21.56;81.56;98515.36;78441;1296;3049560;-64
2023/07/21 00:33:17;;;;;;;12.90;7.30;;;;;;;21.49;81.73;98519.09;79578;1293;3013963;-66
2023/07/21 00:35:44;;;;;;;10.10;7.00;;;;;;;21.28;82.55;98522.80;79614;1298;3011624;-63
2023/07/21 00:38:12;;;;;;;20.90;10.40;;;;;;;21.12;83.23;98522.58;78326;1298;3052076;-64
2023/07/21 00:40:39;;;;;;;40.80;14.20;;;;;;;20.94;84.44;98517.98;79773;1298;3019425;-66
2023/07/21 00:43:08;;;;;;;58.20;22.70;;;;;;;21.29;83.60;98515.65;79574;1297;3012904;-63
2023/07/21 00:45:39;;;;;;;60.80;23.00;;;;;;;21.54;81.90;98512.56;78345;1297;3051001;-65
2023/07/21 00:48:09;;;;;;;56.20;22.90;;;;;;;21.60;81.46;98510.56;79674;1297;3012078;-65
2023/07/21 00:50:44;;;;;;;;;;;;;;;21.50;81.34;98507.19;78450;1296;3050122;-66
2023/07/21 00:53:11;;;;;;;42.30;17.20;;;;;;;21.24;82.94;98505.33;79650;1297;3011673;-62
2023/07/21 00:55:42;;;;;;;24.90;11.20;;;;;;;21.20;82.70;98513.95;78437;1298;3026121;-66
2023/07/21 00:58:09;;;;;;;28.30;11.00;;;;;;;21.44;82.64;98514.91;79930;1295;3011974;-64
2023/07/21 01:00:38;;;;;;;20.40;9.50;;;;;;;21.71;81.12;98524.23;78326;1293;3026566;-65
2023/07/21 01:03:05;;;;;;;13.40;7.70;;;;;;;21.67;80.88;98524.98;79675;1292;3014650;-66
2023/07/21 01:05:34;;;;;;;18.00;7.70;;;;;;;21.50;81.62;98527.50;79548;1293;3011914;-65
2023/07/21 01:08:04;;;;;;;17.60;8.20;;;;;;;21.40;81.47;98527.74;78481;1292;3049666;-63
2023/07/21 01:10:35;;;;;;;10.00;5.30;;;;;;;21.11;83.66;98526.98;79559;1296;3011716;-68
2023/07/21 01:13:03;;;;;;;10.10;6.60;;;;;;;21.58;81.76;98529.27;78696;1297;3053529;-63
2023/07/21 01:15:30;;;;;;;14.20;7.30;;;;;;;21.68;80.89;98525.55;79720;1301;3012945;-62
2023/07/21 01:17:58;;;;;;;11.30;7.20;;;;;;;21.43;82.02;98526.38;79560;1300;3011796;-63
2023/07/21 01:20:27;;;;;;;10.70;6.40;;;;;;;21.21;82.75;98521.32;78307;1298;3027329;-65
2023/07/21 01:23:02;;;;;;;11.80;7.30;;;;;;;20.98;84.09;98517.16;79766;1292;3012789;-63
2023/07/21 01:25:33;;;;;;;8.80;5.00;;;;;;;20.66;86.27;98516.96;78342;1298;3048741;-64
2023/07/21 01:28:00;;;;;;;10.00;5.90;;;;;;;21.04;85.34;98511.42;79848;1297;3013884;-63
2023/07/21 01:30:28;;;;;;;13.00;6.20;;;;;;;21.40;83.15;98506.36;79702;1298;3012980;-62
2023/07/21 01:32:58;;;;;;;10.30;6.90;;;;;;;21.34;82.84;98506.30;78357;1298;3052352;-65
2023/07/21 01:35:28;;;;;;;12.30;7.40;;;;;;;20.92;85.05;98507.55;79535;1292;3013340;-65
2023/07/21 01:37:56;;;;;;;12.60;7.30;;;;;;;20.85;85.16;98507.86;78451;1297;3054565;-65
2023/07/21 01:40:23;;;;;;;8.80;5.80;;;;;;;20.72;86.30;98515.40;79498;1298;3013638;-63
2023/07/21 01:42:50;;;;;;;10.30;6.30;;;;;;;21.15;85.11;98516.71;79599;1298;3013163;-65
2023/07/21 01:45:18;;;;;;;14.20;7.80;;;;;;;21.47;83.22;98518.08;78463;1298;3027531;-65
2023/07/21 01:47:45;;;;;;;18.40;8.60;;;;;;;21.24;83.50;98527.39;79575;1295;3013385;-63
2023/07/21 01:50:15;;;;;;;11.40;8.40;;;;;;;21.06;84.57;98530.44;79555;1292;3011604;-64
2023/07/21 01:52:44;;;;;;;12.50;8.40;;;;;;;20.95;84.80;98534.05;78506;1292;3053400;-64
2023/07/21 01:55:18;;;;;;;10.00;6.50;;;;;;;20.81;85.59;98538.05;79743;1293;3013684;-63
2023/07/21 01:57:50;;;;;;;13.20;6.70;;;;;;;21.25;84.15;98532.08;78274;1298;3053419;-62
2023/07/21 02:00:18;;;;;;;12.60;7.10;;;;;;;21.35;83.18;98534.61;79745;1297;3011848;-64
2023/07/21 02:02:50;;;;;;;11.50;8.00;;;;;;;21.21;83.37;98537.21;77998;1301;3068697;-64
2023/07/21 02:05:20;;;;;;;14.20;8.60;;;;;;;20.96;84.17;98539.73;79530;1292;3013055;-65
2023/07/21 02:07:49;;;;;;;8.60;6.20;;;;;;;20.76;85.51;98544.11;78356;1293;3056024;-64
2023/07/21 02:10:17;;;;;;;12.00;7.30;;;;;;;21.26;84.71;98541.02;79763;1292;3015981;-63
2023/07/21 02:12:48;;;;;;;15.40;8.30;;;;;;;21.55;82.20;98544.04;78387;1297;3049061;-64
2023/07/21 02:15:17;;;;;;;11.70;8.40;;;;;;;21.38;82.61;98545.00;79613;1297;3013048;-65
2023/07/21 02:17:48;;;;;;;14.90;8.60;;;;;;;21.07;84.09;98553.29;79114;1298;3011666;-63
2023/07/21 02:20:14;;;;;;;16.30;8.70;;;;;;;20.71;85.79;98552.55;79664;1292;3013938;-66
2023/07/21 02:22:43;;;;;;;13.10;6.90;;;;;;;20.61;86.28;98570.04;79585;1292;3011976;-65
2023/07/21 02:25:13;;;;;;;13.40;7.40;;;;;;;21.01;85.30;98570.36;78358;1292;3049582;-62
2023/07/21 02:27:41;;;;;;;11.70;8.10;;;;;;;21.00;84.92;98571.95;79651;1293;3013067;-65
2023/07/21 02:30:09;;;;;;;9.50;7.70;;;;;;;20.93;84.90;98576.80;79735;1295;3013026;-63
2023/07/21 02:32:38;;;;;;;15.60;8.70;;;;;;;20.84;84.57;98583.25;78533;1295;3052391;-64
2023/07/21 02:35:05;;;;;;;12.30;7.30;;;;;;;20.69;85.55;98583.05;79697;1297;3021280;-64
2023/07/21 02:37:33;;;;;;;9.80;7.00;;;;;;;20.80;85.90;98586.55;79604;1292;3011774;-64
2023/07/21 02:40:03;;;;;;;12.30;8.70;;;;;;;20.90;85.45;98589.16;78385;1298;3050123;-65
2023/07/21 02:42:30;;;;;;;10.70;9.00;;;;;;;20.94;84.75;98596.30;79629;1292;3013284;-61
2023/07/21 02:44:57;;;;;;;13.90;8.90;;;;;;;20.83;84.45;98596.19;79620;1297;3011899;-63
2023/07/21 02:47:26;;;;;;;12.40;8.20;;;;;;;20.53;86.40;98595.84;78401;1292;3052337;-61
2023/07/21 02:49:53;;;;;;;10.00;8.50;;;;;;;20.86;85.54;98597.44;79870;1292;3014151;-63
2023/07/21 02:52:20;;;;;;;16.10;10.00;;;;;;;20.90;85.21;98596.39;79637;1292;3011588;-63
2023/07/21 02:54:50;;;;;;;13.10;9.30;;;;;;;20.90;84.76;98602.96;78377;1297;3049425;-64
2023/07/21 02:57:17;;;;;;;14.00;10.30;;;;;;;20.80;84.01;98603.23;79737;1292;3013098;-63
2023/07/21 02:59:43;;;;;;;12.70;9.10;;;;;;;20.53;86.13;98606.05;79676;1292;3013257;-64
2023/07/21 03:02:12;;;;;;;13.80;10.10;;;;;;;20.83;85.69;98612.71;78376;1295;3028869;-63
2023/07/21 03:04:42;;;;;;;17.70;10.50;;;;;;;20.85;84.50;98615.98;79431;1292;3011801;-64
2023/07/21 03:07:11;;;;;;;16.40;11.40;;;;;;;20.71;84.94;98621.26;78237;1292;3051146;-64
2023/07/21 03:09:42;;;;;;;13.00;9.10;;;;;;;20.67;84.46;98627.26;79592;1297;3011620;-66
2023/07/21 03:12:19;;;;;;;16.70;9.90;;;;;;;20.63;85.24;98629.27;78395;1297;3049617;-62
2023/07/21 03:15:06;;;;;;;14.70;10.30;;;;;;;20.89;83.97;98624.36;78489;1296;3053795;-63
2023/07/21 03:17:48;;;;;;;19.50;11.90;;;;;;;20.79;83.79;98627.19;78382;1298;3050540;-63
2023/07/21 03:20:15;;;;;;;17.50;12.00;;;;;;;20.62;84.33;98623.81;79770;1298;3013913;-62
2023/07/21 03:22:43;;;;;;;15.00;10.80;;;;;;;20.36;85.24;98625.05;79612;1291;3011719;-66
2023/07/21 03:25:13;;;;;;;14.30;9.40;;;;;;;20.21;86.52;98624.36;78525;1295;3050874;-64
2023/07/21 03:27:40;;;;;;;22.30;12.90;;;;;;;20.59;85.11;98629.83;79672;1292;3014791;-63
2023/07/21 03:30:09;;;;;;;23.30;15.20;;;;;;;20.95;82.33;98633.23;79776;1292;3011879;-65
2023/07/21 03:32:38;;;;;;;27.70;16.40;;;;;;;20.68;82.82;98632.57;78385;1297;3052159;-64
2023/07/21 03:35:05;;;;;;;28.20;18.50;;;;;;;20.53;83.20;98632.16;79774;1294;3012969;-65
2023/07/21 03:37:34;;;;;;;26.50;17.30;;;;;;;20.46;82.69;98630.45;79690;1293;3012163;-63
2023/07/21 03:40:07;;;;;;;24.40;12.60;;;;;;;20.32;82.76;98626.90;78427;1295;3052006;-66
2023/07/21 03:42:34;;;;;;;20.00;13.40;;;;;;;20.73;81.23;98636.11;79462;1298;3011817;-64
2023/07/21 03:45:03;;;;;;;23.10;15.10;;;;;;;20.82;79.59;98647.81;78326;1297;3028884;-65
2023/07/21 03:47:34;;;;;;;24.30;15.90;;;;;;;20.78;79.06;98648.65;79598;1292;3013138;-64
2023/07/21 03:50:02;;;;;;;32.70;17.60;;;;;;;20.53;79.68;98651.94;78419;1296;3050064;-65
2023/07/21 03:52:30;;;;;;;33.00;18.60;;;;;;;20.37;80.08;98652.98;79856;1297;3012048;-65
2023/07/21 03:54:57;;;;;;;26.00;13.00;;;;;;;20.24;81.03;98656.62;79713;1296;3011855;-65
2023/07/21 03:57:25;;;;;;;25.50;13.00;;;;;;;20.74;79.08;98658.95;78439;1298;3052070;-61
2023/07/21 03:59:52;;;;;;;23.30;13.20;;;;;;;21.07;77.31;98664.13;79804;1292;3013840;-65
2023/07/21 04:02:19;;;;;;;24.50;14.40;;;;;;;21.05;77.07;98661.95;79724;1292;3011773;-63
2023/07/21 04:04:48;;;;;;;22.60;13.50;;;;;;;20.77;78.03;98669.38;78541;1295;3049367;-66
2023/07/21 04:07:15;;;;;;;22.70;12.10;;;;;;;20.62;78.49;98668.33;79747;1295;3013516;-66
2023/07/21 04:09:41;;;;;;;17.90;10.00;;;;;;;20.57;78.50;98664.46;79572;1298;3011791;-65
2023/07/21 04:12:09;;;;;;;16.70;8.70;;;;;;;20.46;79.29;98668.33;78528;1296;3050931;-65
2023/07/21 04:14:39;;;;;;;19.00;8.40;;;;;;;20.95;77.31;98670.75;79786;1298;3012152;-62
2023/07/21 04:17:08;;;;;;;21.20;8.40;;;;;;;21.18;76.62;98663.97;79391;1297;3011366;-65
2023/07/21 04:19:34;;;;;;;18.00;9.10;;;;;;;21.30;75.53;98676.20;80013;1294;3013130;-64
2023/07/21 04:22:01;;;;;;;15.10;8.80;;;;;;;21.13;75.88;98679.55;80254;1298;3011413;-63
2023/07/21 04:24:30;;;;;;;17.80;9.00;;;;;;;20.98;76.45;98685.87;78950;1295;3053152;-64
2023/07/21 04:26:57;;;;;;;17.20;8.50;;;;;;;20.81;77.06;98702.02;79573;1291;3013120;-65
2023/07/21 04:29:25;;;;;;;14.90;7.60;;;;;;;20.61;77.46;98695.59;79737;1293;3013659;-68
2023/07/21 04:31:52;;;;;;;11.60;6.60;;;;;;;20.39;78.94;98699.14;78353;1293;3026589;-62
2023/07/21 04:34:20;;;;;;;16.20;6.40;;;;;;;21.01;76.90;98697.45;79751;1298;3013237;-68
2023/07/21 04:36:48;;;;;;;14.80;7.20;;;;;;;21.42;75.27;98700.52;79656;1292;3012002;-66
2023/07/21 04:39:31;;;;;;;13.10;7.00;;;;;;;21.38;75.11;98707.61;78481;1297;3052518;-64
2023/07/21 04:41:58;;;;;;;9.30;6.30;;;;;;;21.13;75.60;98713.68;79567;1298;3012955;-62
2023/07/21 04:44:26;;;;;;;10.00;5.80;;;;;;;20.93;76.48;98710.80;79524;1292;3011480;-68
2023/07/21 04:46:54;;;;;;;7.50;5.20;;;;;;;20.67;77.39;98729.66;78790;1293;3049352;-63
2023/07/21 04:49:24;;;;;;;5.70;4.50;;;;;;;20.53;78.96;98720.59;79609;1297;3011933;-66
2023/07/21 04:51:53;;;;;;;11.70;4.50;;;;;;;21.05;77.32;98719.09;78426;1292;3026400;-65
2023/07/21 04:54:20;;;;;;;8.10;4.70;;;;;;;21.46;75.84;98728.77;79863;1296;3013374;-66
2023/07/21 04:56:47;;;;;;;7.00;5.60;;;;;;;21.41;75.37;98735.94;79856;1298;3011795;-64
2023/07/21 04:59:16;;;;;;;5.50;4.50;;;;;;;21.15;76.18;98742.45;78570;1292;3053071;-62
2023/07/21 05:01:43;;;;;;;8.30;4.90;;;;;;;20.91;77.04;98743.27;79706;1292;3014986;-65
2023/07/21 05:04:10;;;;;;;5.50;5.00;;;;;;;20.73;78.63;98745.50;79593;1292;3011905;-63
2023/07/21 05:06:39;;;;;;;5.30;3.60;;;;;;;20.79;78.49;98743.73;78773;1295;3050984;-64
2023/07/21 05:09:06;;;;;;;7.00;5.20;;;;;;;21.24;76.98;98753.43;79617;1298;3013067;-64
2023/07/21 05:11:33;;;;;;;12.50;8.00;;;;;;;21.55;74.91;98758.09;77514;1297;3013360;-63
2023/07/21 05:14:03;;;;;;;11.90;9.80;;;;;;;21.43;74.36;98767.21;78387;1298;3053904;-63
2023/07/21 05:16:49;;;;;;;19.30;13.20;;;;;;;21.12;75.25;98753.65;78562;1297;3056285;-62
2023/07/21 05:19:36;;;;;;;18.40;14.80;;;;;;;20.81;76.06;98751.17;78360;1297;3050104;-63
2023/07/21 05:22:37;;;;;;;20.30;15.00;;;;;;;20.70;77.02;98746.39;78044;1292;3052690;-63
2023/07/21 05:25:05;;;;;;;22.00;12.40;;;;;;;20.79;76.87;98752.65;79631;1295;3012800;-63
2023/07/21 05:27:35;;;;;;;20.30;12.70;;;;;;;21.20;75.07;98753.66;79244;1292;3011576;-64
2023/07/21 05:30:09;;;;;;;18.70;14.80;;;;;;;21.52;73.54;98752.58;79779;1295;3012987;-63
2023/07/21 05:32:41;;;;;;;17.10;13.00;;;;;;;21.45;72.98;98743.27;78326;1294;3069926;-64
2023/07/21 05:35:16;;;;;;;18.90;13.20;;;;;;;21.28;73.06;98746.64;78461;1298;3053028;-64
2023/07/21 05:37:47;;;;;;;15.60;12.70;;;;;;;21.19;73.55;98744.73;79925;1292;3013195;-65
2023/07/21 05:40:15;;;;;;;14.70;11.00;;;;;;;21.11;73.80;98751.20;78572;1297;3050336;-62
2023/07/21 05:42:42;;;;;;;11.60;8.70;;;;;;;21.05;73.77;98749.51;79450;1292;3015000;-65
2023/07/21 05:45:11;;;;;;;10.80;8.60;;;;;;;20.88;73.57;98749.65;79746;1292;3011641;-64
2023/07/21 05:47:42;;;;;;;11.20;6.00;;;;;;;20.97;73.84;98744.89;78452;1292;3052756;-64
2023/07/21 05:50:09;;;;;;;9.20;7.00;;;;;;;21.61;71.77;98745.17;79827;1291;3013396;-64
2023/07/21 05:52:41;;;;;;;11.40;7.40;;;;;;;22.06;70.23;98746.77;79190;1292;3013679;-64
2023/07/21 05:55:13;;;;;;;8.70;6.50;;;;;;;22.12;70.06;98753.17;79676;1292;3011557;-64
2023/07/21 05:57:42;;;;;;;10.00;6.40;;;;;;;22.18;70.10;98748.71;78463;1295;3048464;-65
2023/07/21 06:00:14;;;;;;;7.70;6.40;;;;;;;21.84;71.08;98761.27;79634;1293;3013461;-65
2023/07/21 06:02:44;;;;;;;8.30;5.90;;;;;;;21.72;71.48;98758.89;78524;1295;3052001;-65
2023/07/21 06:05:12;;;;;;;7.10;6.30;;;;;;;21.69;72.09;98757.05;79846;1292;3013011;-65
2023/07/21 06:07:59;;;;;;;12.10;6.60;;;;;;;21.76;71.88;98758.70;78310;1295;3051489;-65
2023/07/21 06:10:38;;;;;;;13.00;6.30;;;;;;;21.82;72.25;98755.88;78465;1292;3057108;-65
2023/07/21 06:13:39;;;;;;;6.00;4.70;;;;;;;21.94;72.05;98762.70;78320;1292;3050182;-64
2023/07/21 06:16:28;;;;;;;8.30;5.60;;;;;;;22.60;69.78;98763.52;78227;1295;3053222;-66
2023/07/21 06:18:55;;;;;;;6.50;5.80;;;;;;;22.96;68.61;98763.56;79825;1292;3014701;-66
2023/07/21 06:21:22;;;;;;;11.90;7.30;;;;;;;22.82;68.40;98768.11;79753;1292;3011660;-63
2023/07/21 06:23:51;;;;;;;8.00;6.60;;;;;;;22.63;69.13;98779.94;78487;1295;3068873;-63
2023/07/21 06:26:18;;;;;;;8.40;7.20;;;;;;;22.57;69.37;98782.00;79720;1292;3014304;-64
2023/07/21 06:28:45;;;;;;;10.10;6.40;;;;;;;22.44;69.61;98785.02;79659;1292;3013092;-66
2023/07/21 06:31:15;;;;;;;7.80;6.70;;;;;;;22.18;70.43;98791.14;78630;1297;3053726;-64
2023/07/21 06:34:05;;;;;;;8.20;6.10;;;;;;;22.17;70.49;98790.18;78589;1295;3052000;-65
2023/07/21 06:36:51;;;;;;;7.40;6.40;;;;;;;22.15;70.83;98786.40;79040;1292;3054312;-65
2023/07/21 06:39:23;;;;;;;11.10;6.30;;;;;;;22.22;70.43;98787.57;79866;1297;3013434;-65
2023/07/21 06:42:14;;;;;;;9.20;6.40;;;;;;;22.21;69.99;98785.17;78501;1298;3069017;-64
2023/07/21 06:45:04;;;;;;;6.70;5.80;;;;;;;22.22;69.49;98785.86;78349;1298;3051392;-63
2023/07/21 06:47:51;;;;;;;8.70;6.50;;;;;;;22.05;70.14;98795.44;78451;1292;3056952;-62
2023/07/21 06:50:36;;;;;;;7.20;5.00;;;;;;;22.03;70.25;98797.36;78638;1292;3049227;-63
2023/07/21 06:53:05;;;;;;;7.70;4.90;;;;;;;22.85;68.00;98792.78;79741;1292;3012880;-62
2023/07/21 06:55:33;;;;;;;8.40;6.10;;;;;;;23.40;65.22;98799.20;78815;1295;3049122;-67
2023/07/21 06:58:01;;;;;;;7.40;5.80;;;;;;;23.40;64.50;98801.40;79899;1295;3013402;-66
2023/07/21 07:00:27;;;;;;;9.10;6.60;;;;;;;23.38;64.42;98801.63;79814;1295;3011822;-67
2023/07/21 07:02:56;;;;;;;8.00;5.50;;;;;;;23.26;64.72;98803.13;78353;1292;3050454;-63
2023/07/21 07:05:23;;;;;;;9.00;6.10;;;;;;;23.17;65.05;98801.06;79825;1292;3013432;-67
2023/07/21 07:07:53;;;;;;;9.40;6.40;;;;;;;23.20;65.60;98799.49;79707;1293;3011957;-63
2023/07/21 07:10:22;;;;;;;7.70;5.80;;;;;;;23.11;66.25;98811.87;78575;1295;3050217;-63
2023/07/21 07:12:50;;;;;;;7.50;5.60;;;;;;;23.11;66.28;98813.84;79575;1295;3020701;-65
2023/07/21 07:15:17;;;;;;;8.30;6.80;;;;;;;22.97;66.59;98815.73;79590;1292;3013262;-62
2023/07/21 07:17:45;;;;;;;8.60;7.10;;;;;;;23.00;66.43;98814.37;78425;1292;3051219;-62
2023/07/21 07:20:12;;;;;;;8.40;6.50;;;;;;;22.80;65.07;98823.05;79617;1295;3014805;-64
2023/07/21 07:22:44;;;;;;;10.40;7.50;;;;;;;22.63;65.21;98824.16;78354;1292;3055772;-63
2023/07/21 07:25:10;;;;;;;10.90;8.10;;;;;;;22.63;66.08;98832.76;79751;1294;3013916;-64
2023/07/21 07:27:37;;;;;;;10.10;8.30;;;;;;;22.63;66.37;98835.54;79551;1297;3011560;-64
2023/07/21 07:30:06;;;;;;;15.50;9.20;;;;;;;22.79;66.21;98826.59;78653;1295;3069822;-63
2023/07/21 07:32:33;;;;;;;11.90;8.20;;;;;;;23.01;65.61;98824.04;79894;1292;3013588;-64
2023/07/21 07:35:04;;;;;;;11.90;8.40;;;;;;;23.08;65.67;98831.40;79063;1292;3011613;-63
2023/07/21 07:37:32;;;;;;;12.60;8.60;;;;;;;23.02;66.47;98830.52;79641;1292;3012907;-65
2023/07/21 07:39:58;;;;;;;11.60;7.70;;;;;;;23.21;66.28;98835.35;79750;1292;3011674;-65
2023/07/21 07:42:26;;;;;;;10.90;7.80;;;;;;;23.26;64.23;98844.69;78369;1295;3053263;-65
2023/07/21 07:44:55;;;;;;;12.20;9.10;;;;;;;23.25;64.25;98842.16;79805;1292;3020713;-66
2023/07/21 07:47:22;;;;;;;15.90;10.10;;;;;;;23.41;64.37;98836.45;79719;1292;3013152;-63
2023/07/21 07:49:51;;;;;;;16.80;11.30;;;;;;;23.42;64.65;98845.30;78558;1298;3056462;-65
2023/07/21 07:52:18;;;;;;;14.40;10.80;;;;;;;23.33;65.06;98847.80;79487;1292;3013703;-64
2023/07/21 07:54:45;;;;;;;19.50;9.80;;;;;;;23.25;64.05;98849.54;80011;1292;3012134;-67
2023/07/21 07:57:14;;;;;;;16.60;10.00;;;;;;;23.20;63.60;98849.59;78574;1295;3053590;-64
2023/07/21 07:59:42;;;;;;;18.10;10.20;;;;;;;23.30;63.49;98853.01;79655;1295;3011933;-64
2023/07/21 08:02:09;;;;;;;15.10;10.00;;;;;;;23.34;63.03;98852.81;79873;1292;3011774;-65
2023/07/21 08:04:36;;;;;;;17.60;10.00;;;;;;;23.35;63.36;98854.84;78315;1296;3056545;-64
2023/07/21 08:07:03;;;;;;;17.50;10.90;;;;;;;23.43;62.84;98855.29;79637;1292;3020814;-66
2023/07/21 08:09:30;;;;;;;16.20;10.50;;;;;;;23.42;63.47;98864.85;79793;1292;3011620;-63
2023/07/21 08:11:58;;;;;;;18.00;11.30;;;;;;;23.25;63.83;98858.02;78383;1297;3026007;-62
2023/07/21 08:14:24;;;;;;;15.00;9.30;;;;;;;23.33;63.37;98862.84;79801;1292;3011674;-65
2023/07/21 08:16:52;;;;;;;15.40;8.90;;;;;;;23.56;62.93;98866.79;79776;1295;3011796;-68
2023/07/21 08:19:20;;;;;;;12.80;8.70;;;;;;;23.70;62.42;98876.25;78552;1292;3056589;-66
2023/07/21 08:21:48;;;;;;;10.30;7.40;;;;;;;23.55;62.38;98878.57;79777;1291;3020417;-64
2023/07/21 08:24:17;;;;;;;11.50;7.70;;;;;;;23.63;62.27;98876.83;79768;1292;3011621;-65
2023/07/21 08:26:45;;;;;;;11.80;7.50;;;;;;;23.67;61.18;98881.83;79349;1294;3052804;-63
2023/07/21 08:29:11;;;;;;;13.70;7.60;;;;;;;23.85;60.82;98884.89;79537;1292;3013293;-64
2023/07/21 08:31:38;;;;;;;9.20;8.00;;;;;;;23.62;61.66;98890.77;79838;1296;3013024;-66
2023/07/21 08:34:06;;;;;;;11.00;7.60;;;;;;;23.41;62.07;98889.98;78544;1295;3026190;-65
2023/07/21 08:36:33;;;;;;;10.60;7.30;;;;;;;23.39;61.75;98889.89;79796;1292;3013703;-65
2023/07/21 08:39:00;;;;;;;9.20;7.40;;;;;;;23.41;61.97;98900.58;79809;1292;3011646;-64
2023/07/21 08:41:28;;;;;;;11.60;7.50;;;;;;;23.30;61.84;98899.44;78386;1297;3029363;-64
2023/07/21 08:43:55;;;;;;;10.60;7.70;;;;;;;23.50;61.60;98897.17;79657;1292;3013683;-64
2023/07/21 08:46:22;;;;;;;9.70;7.30;;;;;;;23.44;61.61;98907.66;79477;1294;3011590;-66
2023/07/21 08:48:50;;;;;;;8.00;7.00;;;;;;;23.47;61.06;98907.54;78485;1294;3028919;-63
2023/07/21 08:51:16;;;;;;;12.50;8.10;;;;;;;23.51;60.93;98912.02;79798;1297;3013199;-67
2023/07/21 08:53:43;;;;;;;8.30;7.40;;;;;;;23.58;60.93;98920.80;79646;1292;3012932;-63
2023/07/21 08:56:11;;;;;;;10.20;9.20;;;;;;;23.31;61.57;98923.06;78448;1296;3050755;-65
2023/07/21 08:58:39;;;;;;;11.20;8.70;;;;;;;23.13;62.49;98925.90;79765;1293;3014067;-63
2023/07/21 09:01:08;;;;;;;12.20;8.10;;;;;;;23.36;62.35;98929.67;79551;1292;3012094;-64
2023/07/21 09:03:42;;;;;;;12.80;8.50;;;;;;;23.57;61.53;98920.88;78440;1292;3056363;-65
2023/07/21 09:06:11;;;;;;;7.60;6.80;;;;;;;23.83;60.42;98927.97;79471;1294;3012805;-63
2023/07/21 09:08:39;;;;;;;10.20;5.90;;;;;;;23.87;59.92;98928.69;78505;1292;3053597;-64
2023/07/21 09:11:07;;;;;;;7.20;5.40;;;;;;;23.68;60.88;98932.13;79681;1291;3018531;-68
2023/07/21 09:13:34;;;;;;;8.90;5.50;;;;;;;23.58;60.31;98931.53;79762;1297;3011611;-62
2023/07/21 09:16:05;;;;;;;6.00;5.30;;;;;;;23.64;60.18;98928.15;78439;1292;3069492;-65
2023/07/21 09:18:40;;;;;;;6.50;5.60;;;;;;;23.62;59.35;98938.54;80008;1292;3013659;-65
2023/07/21 09:21:20;;;;;;;7.10;5.10;;;;;;;23.25;60.26;98941.29;78587;1292;3055830;-67
2023/07/21 09:23:49;;;;;;;6.40;5.40;;;;;;;23.24;60.09;98943.05;78343;1292;3049301;-66
2023/07/21 09:26:21;;;;;;;6.50;5.20;;;;;;;23.09;60.21;98944.81;79815;1292;3011603;-66
2023/07/21 09:28:50;;;;;;;7.70;5.80;;;;;;;23.20;59.84;98943.52;78521;1295;3053242;-65
2023/07/21 09:31:16;;;;;;;6.00;5.40;;;;;;;23.14;59.57;98945.25;80007;1292;3013079;-65
2023/07/21 09:33:44;;;;;;;7.00;5.60;;;;;;;23.25;59.03;98945.75;79692;1291;3011607;-65
2023/07/21 09:36:15;;;;;;;7.00;5.80;;;;;;;23.23;58.62;98953.36;78399;1297;3057006;-64
2023/07/21 09:38:42;;;;;;;7.70;6.10;;;;;;;23.37;58.79;98952.48;79859;1292;3013027;-65
2023/07/21 09:41:17;;;;;;;9.80;6.10;;;;;;;23.50;58.64;98948.13;79281;1292;3011933;-65
2023/07/21 09:43:44;;;;;;;7.20;6.50;;;;;;;23.45;57.72;98953.56;79847;1292;3011587;-64
2023/07/21 09:46:12;;;;;;;8.70;7.30;;;;;;;23.42;58.56;98951.30;78677;1292;3053529;-65
2023/07/21 09:48:38;;;;;;;9.40;6.70;;;;;;;23.30;58.48;98958.23;79754;1292;3013409;-65
2023/07/21 09:51:07;;;;;;;10.40;7.00;;;;;;;23.30;58.59;98954.10;79878;1295;3011577;-65
2023/07/21 09:53:40;;;;;;;10.90;6.90;;;;;;;23.18;58.16;98958.41;78518;1297;3056428;-64
2023/07/21 09:56:07;;;;;;;13.60;7.20;;;;;;;23.40;58.07;98957.02;79567;1292;3011746;-65
2023/07/21 09:58:57;;;;;;;10.90;8.10;;;;;;;23.59;57.16;98956.11;78633;1292;3053599;-66
2023/07/21 10:01:25;;;;;;;9.70;7.40;;;;;;;23.62;56.77;98956.10;78488;1293;3050708;-65
2023/07/21 10:03:52;;;;;;;13.50;8.30;;;;;;;23.70;56.49;98964.52;79807;1297;3013726;-63
2023/07/21 10:06:19;;;;;;;11.80;9.30;;;;;;;23.46;56.89;98968.59;79678;1295;3011647;-64
2023/07/21 10:08:47;;;;;;;12.80;8.90;;;;;;;23.45;56.56;98961.28;78416;1298;3025646;-65
2023/07/21 10:11:13;;;;;;;10.30;9.20;;;;;;;23.51;55.85;98967.75;79874;1292;3018718;-66
2023/07/21 10:13:44;;;;;;;10.70;8.80;;;;;;;23.66;54.96;98969.68;79701;1292;3011765;-66
2023/07/21 10:16:17;;;;;;;16.30;10.10;;;;;;;23.54;54.21;98966.67;78357;1293;3049122;-66
2023/07/21 10:19:07;;;;;;;12.70;9.80;;;;;;;23.67;54.35;98961.52;79348;1298;3011587;-68
2023/07/21 10:21:52;;;;;;;14.50;10.60;;;;;;;23.78;54.40;98962.54;78329;1295;3051671;-66
2023/07/21 10:24:27;;;;;;;17.10;11.90;;;;;;;23.79;54.93;98954.34;78290;1292;3068996;-67
2023/07/21 10:27:03;;;;;;;16.70;10.90;;;;;;;23.64;55.20;98967.27;79096;1292;3011615;-64
2023/07/21 10:29:32;;;;;;;11.30;10.10;;;;;;;23.50;55.35;98964.34;79017;1293;3011701;-66
2023/07/21 10:31:59;;;;;;;10.60;9.10;;;;;;;23.60;54.38;98957.74;79582;1298;3013062;-64
2023/07/21 10:34:30;;;;;;;11.70;10.10;;;;;;;23.91;53.84;98956.59;79618;1293;3011687;-67
2023/07/21 10:36:59;;;;;;;11.10;9.60;;;;;;;24.01;53.74;98960.97;78295;1293;3052305;-67
2023/07/21 10:39:28;;;;;;;11.40;9.60;;;;;;;23.66;54.67;98964.60;79798;1295;3013551;-66
2023/07/21 10:41:58;;;;;;;11.30;9.10;;;;;;;23.48;55.15;98977.83;79177;1298;3011901;-65
2023/07/21 10:44:33;;;;;;;10.10;8.20;;;;;;;23.23;55.68;98976.07;79564;1292;3013705;-67
2023/07/21 10:47:01;;;;;;;9.70;6.20;;;;;;;23.39;55.59;98962.32;78345;1292;3068335;-66
2023/07/21 10:49:28;;;;;;;9.20;6.00;;;;;;;23.64;54.64;98972.13;79478;1292;3012937;-66
2023/07/21 10:51:55;;;;;;;7.50;5.40;;;;;;;23.83;53.73;98971.42;79553;1292;3011550;-67
2023/07/21 10:54:23;;;;;;;6.30;5.70;;;;;;;23.69;53.27;98973.33;78301;1292;3052426;-68
2023/07/21 10:56:51;;;;;;;6.50;4.80;;;;;;;23.71;53.26;98974.11;79604;1295;3013656;-65
2023/07/21 10:59:25;;;;;;;5.60;5.00;;;;;;;23.68;53.24;98968.21;78316;1298;3052667;-66
2023/07/21 11:01:56;;;;;;;7.90;5.00;;;;;;;23.83;52.88;98966.19;79621;1297;3013572;-68
2023/07/21 11:04:26;;;;;;;5.80;5.00;;;;;;;23.77;52.62;98971.02;78320;1292;3057672;-67
2023/07/21 11:06:54;;;;;;;9.40;5.50;;;;;;;23.75;52.73;98979.51;79720;1293;3013122;-66
2023/07/21 11:09:21;;;;;;;6.50;5.50;;;;;;;23.92;52.77;98969.26;79583;1292;3011918;-70
2023/07/21 11:11:51;;;;;;;7.30;5.10;;;;;;;24.26;52.32;98968.66;78232;1298;3052397;-64
2023/07/21 11:14:23;;;;;;;7.20;4.90;;;;;;;24.44;51.19;98969.51;79783;1296;3011801;-68
2023/07/21 11:16:56;;;;;;;8.70;5.50;;;;;;;24.49;50.55;98985.85;78164;1295;3069015;-72
2023/07/21 11:19:29;;;;;;;6.30;4.80;;;;;;;24.31;50.01;98972.98;79048;1293;3013097;-65
2023/07/21 11:21:56;;;;;;;7.30;4.80;;;;;;;24.28;50.21;98978.63;79565;1297;3012970;-69